Latest Weather Observations for Proserpine

IDQ60801

Issued at 11:02 pm EST Thursday 18 December 2014 (issued every 30 minutes, with the page automatically refreshed every 10 minutes)

About weather observations | Map of weather stations | Latest weather observations for QLD | Other Formats
Station Details ID: 033247 Name: PROSERPINE AIRPORT Lat: -20.49 Lon: 148.56 Height: 19.7 m
Data from the previous 72 hours. | See also: Recent months at Proserpine
Date/Time
EST
Temp
°C
App
Temp
°C
Dew
Point
Rel
Hum
%
Delta-T
°C
Wind Press
QNH
hPa
Press
MSL
hPa
Rain
since 9 am
mm
Dir
 
Spd
km/h
Gust
km/h
Spd
kts
Gust
kts
18/11:00pm 25.1 27.1 21.6 81 2.3 WSW 13 15 7 8 1013.2 - 0.0
18/10:30pm 24.6 27.6 21.3 82 2.2 WNW 7 9 4 5 1012.6 - 0.0
18/10:00pm 24.6 27.4 20.9 80 2.4 NNW 7 11 4 6 1012.3 - 0.0
18/09:30pm 25.0 27.8 20.9 78 2.7 NNW 7 11 4 6 1012.3 - 0.0
18/09:00pm 25.1 27.6 21.0 78 2.7 NW 9 13 5 7 1012.1 1011.9 0.0
18/08:30pm 25.1 27.6 21.0 78 2.7 NNW 9 13 5 7 1011.5 - 0.0
18/08:00pm 25.6 28.1 21.1 76 3.0 NNW 9 13 5 7 1011.4 - 0.0
18/07:30pm 26.2 27.9 21.0 73 3.4 NNW 13 19 7 10 1010.9 - 0.0
18/07:00pm 26.7 27.4 20.5 69 4.1 NNW 17 26 9 14 1010.4 - 0.0
18/06:30pm 27.3 27.5 20.6 67 4.4 NNW 20 28 11 15 1009.8 - 0.0
18/06:00pm 28.5 28.3 20.5 62 5.3 NNW 22 28 12 15 1009.8 1009.7 0.0
18/05:30pm 29.5 28.3 20.1 57 6.2 NNW 26 35 14 19 1009.5 - 0.0
18/05:00pm 30.5 29.7 20.1 53 6.9 NNW 24 33 13 18 1008.8 - 0.0
18/04:30pm 31.3 30.0 19.0 48 8.0 NNW 24 30 13 16 1008.1 - 0.0
18/04:00pm 31.7 30.3 17.9 43 8.9 NNW 22 33 12 18 1008.1 - 0.0
18/03:30pm 32.5 30.4 16.3 37 10.2 NNW 22 32 12 17 1008.3 - 0.0
18/03:00pm 33.2 30.9 15.7 35 11.0 N 22 32 12 17 1008.6 1008.6 0.0
18/02:30pm 33.0 31.0 16.4 37 10.5 N 22 33 12 18 1009.0 - 0.0
18/02:00pm 33.3 31.1 17.0 37 10.4 NNW 24 33 13 18 1009.6 - 0.0
18/01:30pm 33.2 31.4 17.0 38 10.3 NNW 22 33 12 18 1009.9 - 0.0
18/01:00pm 33.8 32.4 17.9 38 10.3 NW 22 32 12 17 1010.3 - 0.0
18/12:30pm 33.0 30.3 13.6 31 11.8 NNW 20 33 11 18 1010.5 - 0.0
18/12:00pm 33.5 32.3 19.2 43 9.4 NW 24 33 13 18 1010.7 1010.7 0.0
18/11:30am 32.4 32.2 19.3 46 8.6 NNW 19 30 10 16 1011.1 - 0.0
18/11:00am 31.7 32.4 19.7 49 7.9 NNW 15 28 8 15 1011.5 - 0.0
18/10:30am 32.4 33.9 20.6 49 7.9 NNW 13 19 7 10 1011.9 - 0.0
18/10:00am 30.9 30.2 18.3 47 8.1 NNW 19 30 10 16 1012.1 - 0.0
18/09:30am 30.7 32.2 20.6 54 6.7 N 13 24 7 13 1012.4 - 0.0
18/09:00am 29.3 29.9 20.2 58 6.0 NNW 17 24 9 13 1012.6 1012.5 0.0
18/08:30am 29.5 31.3 21.2 61 5.5 N 13 19 7 10 1012.5 - 0.0
18/08:00am 28.3 30.2 21.3 65 4.7 N 13 17 7 9 1012.3 - 0.0
18/07:30am 26.8 30.2 22.0 75 3.2 NNW 7 9 4 5 1012.1 - 0.0
18/07:00am 24.6 28.7 21.5 83 2.1 W 2 6 1 3 1011.9 - 0.0
18/06:53am 24.3 28.1 21.6 85 1.8 W 4 7 2 4 1012.0 - 0.0
18/06:32am 22.9 26.3 21.7 93 0.8 SW 6 9 3 5 1011.6 - 0.0
18/06:30am 22.7 25.8 21.5 93 0.8 SW 7 9 4 5 1011.5 - 0.0
18/06:00am 21.6 25.5 20.4 93 0.8 CALM 0 7 0 4 1011.2 1011.0 0.0
18/05:30am 21.3 24.4 20.3 94 0.6 WSW 4 6 2 3 1010.8 - 0.0
18/05:00am 21.4 25.2 20.2 93 0.8 CALM 0 0 0 0 1010.1 - 0.0
18/04:30am 20.9 24.4 19.6 92 0.8 CALM 0 0 0 0 1009.7 - 0.0
18/04:00am 21.2 24.8 19.8 92 0.9 CALM 0 0 0 0 1009.6 - 0.0
18/03:30am 21.6 25.4 20.1 91 1.0 CALM 0 0 0 0 1009.4 - 0.0
18/03:00am 21.9 25.6 20.0 89 1.2 CALM 0 0 0 0 1009.4 1009.3 0.0
18/02:30am 22.2 24.5 20.7 91 1.0 N 9 13 5 7 1009.4 - 0.0
18/02:00am 22.0 24.2 20.5 91 1.0 N 9 11 5 6 1009.5 - 0.0
18/01:30am 22.2 25.4 20.5 90 1.1 NNW 4 7 2 4 1009.6 - 0.0
18/01:00am 22.5 24.9 20.8 90 1.1 N 9 11 5 6 1009.6 - 0.0
18/12:30am 22.3 24.9 20.4 89 1.2 NW 7 9 4 5 1009.7 - 0.0
18/12:00am 22.9 25.7 20.8 88 1.4 NNW 7 9 4 5 1009.7 1009.7 0.0
 
Date/Time
EST
Temp
°C
App
Temp
°C
Dew
Point
Rel
Hum
%
Delta-T
°C
Wind Press
QNH
hPa
Press
MSL
hPa
Rain
since 9 am
mm
Dir
 
Spd
km/h
Gust
km/h
Spd
kts
Gust
kts
17/11:30pm 23.0 25.3 20.7 87 1.5 N 9 11 5 6 1010.0 - 0.0
17/11:00pm 23.4 25.7 20.7 85 1.8 N 9 13 5 7 1010.2 - 0.0
17/10:30pm 23.9 26.3 20.8 83 2.0 NNW 9 13 5 7 1010.2 - 0.0
17/10:00pm 24.3 26.3 20.8 81 2.3 N 11 15 6 8 1010.1 - 0.0
17/09:30pm 24.5 27.1 21.2 82 2.2 NNW 9 13 5 7 1009.8 - 0.0
17/09:00pm 25.1 27.3 21.2 79 2.6 NW 11 13 6 7 1009.7 1009.6 0.0
17/08:30pm 25.2 26.9 20.9 77 2.8 NNW 13 17 7 9 1009.1 - 0.0
17/08:00pm 25.8 27.1 20.8 74 3.3 NNW 15 19 8 10 1008.9 - 0.0
17/07:30pm 26.5 27.8 20.8 71 3.8 NNW 15 20 8 11 1008.9 - 0.0
17/07:00pm 27.1 27.8 20.4 66 4.4 NNW 17 26 9 14 1008.7 - 0.0
17/06:30pm 28.1 28.1 20.1 62 5.2 NNW 20 28 11 15 1008.2 - 0.0
17/06:00pm 29.3 28.2 18.7 52 6.8 NNW 22 32 12 17 1007.8 1007.6 0.0
17/05:30pm 30.4 28.9 17.8 46 8.0 NNW 22 32 12 17 1007.3 - 0.0
17/05:00pm 31.3 29.6 17.2 42 9.0 NNW 22 33 12 18 1006.7 - 0.0
17/04:30pm 31.7 29.5 16.8 40 9.4 N 24 35 13 19 1006.6 - 0.0
17/04:00pm 32.6 29.4 14.2 32 11.2 N 24 32 13 17 1006.6 - 0.0
17/03:30pm 33.0 30.4 15.0 33 11.1 NNW 22 33 12 18 1006.6 - 0.0
17/03:00pm 34.3 31.6 14.7 30 12.2 NNW 22 30 12 16 1006.8 1006.7 0.0
17/02:30pm 33.7 30.9 14.2 30 12.0 N 22 33 12 18 1007.0 - 0.0
17/02:00pm 33.5 30.6 15.0 32 11.5 N 24 35 13 19 1007.1 - 0.0
17/01:30pm 33.9 32.0 16.7 35 10.9 N 22 30 12 16 1007.5 - 0.0
17/01:00pm 33.4 31.8 17.5 38 10.2 NNW 22 32 12 17 1007.8 - 0.0
17/12:30pm 33.4 31.9 16.7 36 10.6 N 20 30 11 16 1008.3 - 0.0
17/12:00pm 33.6 31.6 15.6 34 11.3 NNW 20 30 11 16 1008.6 1008.5 0.0
17/11:30am 33.4 30.7 14.5 32 11.6 NNW 22 30 12 16 1008.8 - 0.0
17/11:00am 32.6 31.1 16.8 38 10.0 NNW 20 30 11 16 1009.3 - 0.0
17/10:30am 32.4 31.7 18.6 44 9.0 NNW 20 32 11 17 1009.8 - 0.0
17/10:00am 31.6 29.8 17.9 44 8.8 NW 24 28 13 15 1009.9 - 0.0
17/09:30am 30.8 29.6 17.5 45 8.5 NNW 20 28 11 15 1009.9 - 0.0
17/09:00am 29.9 30.7 21.3 60 5.8 N 19 28 10 15 1010.0 1009.9 0.0
17/08:30am 29.2 30.8 22.2 66 4.7 N 17 24 9 13 1010.2 - 0.0
17/08:00am 27.8 30.2 22.3 72 3.7 NW 13 20 7 11 1010.3 - 0.0
17/07:37am 26.4 30.1 22.5 79 2.6 NNW 7 13 4 7 1010.2 - 0.0
17/07:30am 26.3 30.2 23.0 82 2.2 NNW 7 9 4 5 1010.1 - 0.0
17/07:00am 23.7 28.1 21.4 87 1.5 CALM 0 4 0 2 1009.8 - 0.0
17/06:30am 21.7 25.3 20.5 93 0.8 WSW 2 7 1 4 1009.7 - 0.0
17/06:00am 20.1 23.4 19.1 94 0.6 CALM 0 0 0 0 1009.2 1009.1 0.0
17/05:32am 19.3 22.3 18.5 95 0.5 CALM 0 0 0 0 1008.7 - 0.0
17/05:30am 19.2 22.2 18.4 95 0.5 CALM 0 0 0 0 1008.7 - 0.0
17/05:19am 19.3 22.2 18.3 94 0.6 CALM 0 0 0 0 1008.5 - 0.0
17/05:00am 19.5 21.9 18.7 95 0.5 W 4 6 2 3 1008.4 - 0.0
17/04:42am 19.7 22.9 18.9 95 0.5 CALM 0 0 0 0 1008.0 - 0.0
17/04:30am 19.9 23.2 19.2 96 0.4 CALM 0 0 0 0 1008.0 - 0.0
17/04:25am 19.5 22.6 18.7 95 0.5 CALM 0 0 0 0 1007.9 - 0.0
17/04:00am 19.6 21.5 18.6 94 0.6 WSW 6 7 3 4 1007.8 - 0.0
17/03:54am 19.7 21.7 18.7 94 0.6 W 6 7 3 4 1007.8 - 0.0
17/03:30am 20.1 22.3 19.1 94 0.6 NW 6 7 3 4 1007.8 - 0.0
17/03:00am 20.3 23.6 19.0 92 0.8 CALM 0 0 0 0 1007.8 1007.7 0.0
17/02:30am 21.3 25.2 20.3 94 0.6 CALM 0 0 0 0 1007.8 - 0.0
17/02:00am 21.2 24.9 20.0 93 0.8 CALM 0 2 0 1 1008.0 - 0.0
17/01:30am 21.2 23.6 20.0 93 0.8 WNW 7 7 4 4 1008.3 - 0.0
17/01:00am 21.3 23.7 20.1 93 0.8 NW 7 9 4 5 1008.6 - 0.0
17/12:30am 21.7 24.1 20.0 90 1.1 NNW 7 9 4 5 1008.8 - 0.0
17/12:00am 22.4 24.7 19.9 86 1.6 NNW 7 11 4 6 1009.2 1009.2 0.0
 
Date/Time
EST
Temp
°C
App
Temp
°C
Dew
Point
Rel
Hum
%
Delta-T
°C
Wind Press
QNH
hPa
Press
MSL
hPa
Rain
since 9 am
mm
Dir
 
Spd
km/h
Gust
km/h
Spd
kts
Gust
kts
16/11:30pm 23.4 25.8 20.9 86 1.6 NNW 9 11 5 6 1009.4 - 0.0
16/11:00pm 23.7 26.2 21.0 85 1.8 NNW 9 13 5 7 1009.6 - 0.0
16/10:30pm 23.8 26.0 21.1 85 1.8 N 11 13 6 7 1009.9 - 0.0
16/10:00pm 24.0 26.7 21.3 85 1.8 N 9 11 5 6 1010.0 - 0.0
16/09:30pm 24.3 27.0 21.4 84 1.9 NNW 9 11 5 6 1009.8 - 0.0
16/09:00pm 24.8 27.6 21.5 82 2.2 NNW 9 13 5 7 1009.6 1009.5 0.0
16/08:30pm 25.3 26.9 21.4 79 2.6 NNW 15 19 8 10 1009.4 - 0.0
16/08:00pm 25.7 27.5 21.1 76 3.0 NNW 13 20 7 11 1009.2 - 0.0
16/07:30pm 26.2 27.9 21.0 73 3.4 NNW 13 19 7 10 1009.0 - 0.0
16/07:00pm 26.9 27.5 20.3 67 4.3 NNW 17 24 9 13 1008.7 - 0.0
16/06:30pm 27.8 28.2 19.8 61 5.2 NNW 17 24 9 13 1008.2 - 0.0
16/06:00pm 29.2 28.9 19.5 56 6.3 NNW 20 30 11 16 1007.9 1007.8 0.0
16/05:30pm 30.3 29.1 18.4 49 7.7 NNW 22 30 12 16 1007.5 - 0.0
16/05:00pm 31.7 30.8 18.3 45 8.7 N 20 32 11 17 1007.2 - 0.0
16/04:30pm 32.1 30.9 18.3 44 8.9 N 22 30 12 16 1006.9 - 0.0
16/04:00pm 33.2 31.1 14.8 33 11.4 N 19 28 10 15 1007.0 - 0.0
16/03:30pm 33.4 31.9 16.3 36 10.8 N 19 28 10 15 1007.1 - 0.0
16/03:00pm 33.9 32.6 16.7 35 11.0 N 19 28 10 15 1007.3 1007.3 0.0
16/02:30pm 33.7 32.5 17.4 37 10.5 N 20 30 11 16 1007.7 - 0.0
16/02:00pm 34.1 33.2 18.2 39 10.3 N 20 28 11 15 1008.0 - 0.0
16/01:30pm 35.1 33.7 16.9 34 11.6 ENE 20 28 11 15 1008.4 - 0.0
16/01:00pm 34.9 34.2 13.1 27 13.2 SSE 9 19 5 10 1008.8 - 0.0
16/12:30pm 34.8 33.7 11.9 25 13.6 ESE 9 19 5 10 1009.3 - 0.0
16/12:00pm 34.6 33.4 12.9 27 13.1 N 11 19 6 10 1009.7 1009.7 0.0
16/11:30am 34.1 32.2 13.0 28 12.7 NE 15 20 8 11 1010.1 - 0.0
16/11:00am 33.0 33.3 15.9 35 10.7 NNW 9 17 5 9 1010.4 - 0.0
16/10:30am 31.8 32.4 15.7 37 10.0 WNW 7 19 4 10 1010.9 - 0.0
16/10:00am 31.7 31.6 16.0 38 9.8 N 11 19 6 10 1011.2 - 0.0
16/09:30am 31.0 31.3 17.0 43 8.9 NNW 11 20 6 11 1011.5 - 0.0
16/09:00am 28.7 30.3 19.1 56 6.2 NNW 9 19 5 10 1011.7 1011.5 0.0
16/08:30am 27.5 30.2 21.3 69 4.1 N 9 15 5 8 1011.7 - 0.0
16/08:00am 26.5 29.7 21.3 73 3.5 N 6 13 3 7 1011.8 - 0.0
16/07:30am 24.6 28.9 21.1 81 2.3 CALM 0 6 0 3 1011.6 - 0.0
16/07:00am 22.8 26.0 20.5 87 1.5 NW 4 7 2 4 1011.5 - 0.0
16/06:47am 22.4 25.7 20.7 90 1.1 NNW 4 7 2 4 1011.4 - 0.0
16/06:30am 21.6 25.4 20.1 91 1.0 CALM 0 6 0 3 1011.1 - 0.0
16/06:10am 20.8 24.4 19.8 94 0.6 CALM 0 0 0 0 1010.9 - 0.0
16/06:05am 20.5 24.0 19.5 94 0.6 CALM 0 0 0 0 1010.8 - 0.0
16/06:00am 20.1 23.5 19.3 95 0.5 CALM 0 0 0 0 1010.8 1010.6 0.0
16/05:54am 19.9 23.1 18.9 94 0.6 CALM 0 0 0 0 1010.6 - 0.0
16/05:30am 19.6 22.8 18.8 95 0.5 CALM 0 0 0 0 1010.3 - 0.0
16/05:00am 19.5 22.6 18.7 95 0.5 CALM 0 0 0 0 1009.9 - 0.0
16/04:48am 19.8 23.1 19.1 96 0.4 CALM 0 0 0 0 1009.7 - 0.0
16/04:30am 19.7 22.5 18.9 95 0.5 NW 2 6 1 3 1009.5 - 0.0
16/04:00am 19.9 22.1 19.1 95 0.5 W 6 7 3 4 1009.4 - 0.0
16/03:30am 20.4 23.8 19.4 94 0.6 CALM 0 0 0 0 1009.4 - 0.0
16/03:00am 20.4 23.8 19.4 94 0.6 CALM 0 0 0 0 1009.5 1009.4 0.0
16/02:30am 20.5 23.9 19.3 93 0.8 CALM 0 0 0 0 1009.6 - 0.0
16/02:27am 20.6 24.0 19.4 93 0.8 CALM 0 0 0 0 1009.6 - 0.0
16/02:13am 20.9 24.6 19.9 94 0.6 CALM 0 4 0 2 1009.6 - 0.0
16/02:00am 21.0 24.3 20.0 94 0.6 W 2 6 1 3 1009.7 - 0.0
16/01:35am 21.0 24.3 20.0 94 0.6 W 2 7 1 4 1010.0 - 0.0
16/01:30am 21.1 24.8 19.9 93 0.8 CALM 0 0 0 0 1010.0 - 0.0
16/01:00am 21.7 24.8 20.3 92 0.9 WSW 4 6 2 3 1010.3 - 0.0
16/12:30am 21.9 25.1 20.4 91 1.0 S 4 6 2 3 1010.8 - 0.0
16/12:00am 22.0 26.0 20.5 91 1.0 CALM 0 0 0 0 1011.3 1011.2 0.0
 
Date/Time
EST
Temp
°C
App
Temp
°C
Dew
Point
Rel
Hum
%
Delta-T
°C
Wind Press
QNH
hPa
Press
MSL
hPa
Rain
since 9 am
mm
Dir
 
Spd
km/h
Gust
km/h
Spd
kts
Gust
kts
15/11:30pm 22.2 26.3 20.7 91 1.0 CALM 0 0 0 0 1011.7 - 0.0

Other Formats:

Comma delimited format used in spreadsheet applications
http://www.bom.gov.au/fwo/IDQ60801/IDQ60801.94365.axf

JavaScript Object Notation format (JSON) in row-major order
http://www.bom.gov.au/fwo/IDQ60801/IDQ60801.94365.json